Time;durP1;ratioP1;P1;durP2;ratioP2;P2;SDS_P1;SDS_P2;PMS_P1;PMS_P2;Temp;Humidity;BMP_temperature;BMP_pressure;BME280_temperature;BME280_humidity;BME280_pressure;Samples;Min_cycle;Max_cycle;Signal;HPM_P1;HPM_P2
2022/04/11 00:00:43;;;;;;;;;5.75;4.75;;;;;;;;5060576;28;51163;-55
2022/04/11 00:03:30;;;;;;;;;8.00;5.00;;;;;;;;5060784;28;51017;-54
2022/04/11 00:06:14;;;;;;;;;6.25;4.50;;;;;;;;5060094;28;51551;-55
2022/04/11 00:09:00;;;;;;;;;7.75;4.75;;;;;;;;5060601;28;51399;-54
2022/04/11 00:11:49;;;;;;;;;3.00;3.00;;;;;;;;5060156;28;51145;-54
2022/04/11 00:14:34;;;;;;;;;8.50;3.75;;;;;;;;5060480;28;51104;-54
2022/04/11 00:17:19;;;;;;;;;6.00;4.75;;;;;;;;5060065;28;51073;-54
2022/04/11 00:20:11;;;;;;;;;5.00;5.00;;;;;;;;5060147;28;51263;-54
2022/04/11 00:22:56;;;;;;;;;5.25;2.50;;;;;;;;5060472;28;51253;-54
2022/04/11 00:25:42;;;;;;;;;7.00;4.25;;;;;;;;5059588;28;50936;-53
2022/04/11 00:28:27;;;;;;;;;4.75;3.50;;;;;;;;5060294;28;51417;-54
2022/04/11 00:31:22;;;;;;;;;9.25;6.00;;;;;;;;5060010;28;51219;-54
2022/04/11 00:34:06;;;;;;;;;8.00;4.25;;;;;;;;5060012;28;51383;-55
2022/04/11 00:36:52;;;;;;;;;8.00;5.75;;;;;;;;5059389;28;51122;-54
2022/04/11 00:39:54;;;;;;;;;5.50;3.75;;;;;;;;5060016;28;51142;-54
2022/04/11 00:42:41;;;;;;;;;5.00;4.00;;;;;;;;5059509;28;51074;-52
2022/04/11 00:45:27;;;;;;;;;0.50;0.50;;;;;;;;5059958;28;51207;-53
2022/04/11 00:48:12;;;;;;;;;9.50;4.75;;;;;;;;5059791;28;51148;-55
2022/04/11 00:51:03;;;;;;;;;7.00;4.75;;;;;;;;5059060;28;51131;-54
2022/04/11 00:53:58;;;;;;;;;6.50;5.25;;;;;;;;5059740;28;51087;-55
2022/04/11 00:56:48;;;;;;;;;8.00;3.00;;;;;;;;5041285;28;51453;-54
2022/04/11 00:59:52;;;;;;;;;5.75;4.50;;;;;;;;5059442;28;51121;-53
2022/04/11 01:03:00;;;;;;;;;8.25;5.00;;;;;;;;5059281;28;51033;-55
2022/04/11 01:05:46;;;;;;;;;5.25;5.00;;;;;;;;5059373;28;51208;-55
2022/04/11 01:08:30;;;;;;;;;13.25;5.50;;;;;;;;5052247;28;51141;-55
2022/04/11 01:11:25;;;;;;;;;8.50;6.00;;;;;;;;5044024;28;51184;-55
2022/04/11 01:14:08;;;;;;;;;7.25;5.00;;;;;;;;5059234;28;51355;-55
2022/04/11 01:16:57;;;;;;;;;7.75;5.00;;;;;;;;5058892;28;51172;-55
2022/04/11 01:19:42;;;;;;;;;5.25;4.50;;;;;;;;5059774;28;51128;-55
2022/04/11 01:22:28;;;;;;;;;4.25;3.50;;;;;;;;5058891;28;51314;-54
2022/04/11 01:25:24;;;;;;;;;7.50;5.00;;;;;;;;5052037;28;51145;-54
2022/04/11 01:28:09;;;;;;;;;8.75;6.25;;;;;;;;5058848;28;51061;-54
2022/04/11 01:30:56;;;;;;;;;6.50;5.00;;;;;;;;5058006;28;51213;-55
2022/04/11 01:33:43;;;;;;;;;4.75;3.00;;;;;;;;5041056;28;51163;-55
2022/04/11 01:36:32;;;;;;;;;9.00;5.50;;;;;;;;5059123;28;51065;-55
2022/04/11 01:39:20;;;;;;;;;6.25;5.00;;;;;;;;5058805;28;51140;-54
2022/04/11 01:42:07;;;;;;;;;6.50;5.00;;;;;;;;5058674;28;51148;-54
2022/04/11 01:44:56;;;;;;;;;5.25;3.75;;;;;;;;5042968;28;51142;-54
2022/04/11 01:47:59;;;;;;;;;7.75;4.75;;;;;;;;5038618;28;51098;-53
2022/04/11 01:50:54;;;;;;;;;5.50;4.00;;;;;;;;5038885;28;51047;-54
2022/04/11 01:53:49;;;;;;;;;9.25;5.00;;;;;;;;5048979;28;51067;-55
2022/04/11 01:56:33;;;;;;;;;8.25;5.25;;;;;;;;5039218;28;51179;-55
2022/04/11 01:59:19;;;;;;;;;8.50;6.00;;;;;;;;5038372;28;51565;-55
2022/04/11 02:02:25;;;;;;;;;7.75;5.00;;;;;;;;5041645;28;51226;-54
2022/04/11 02:05:34;;;;;;;;;6.00;4.50;;;;;;;;5042789;28;51125;-55
2022/04/11 02:08:23;;;;;;;;;7.50;5.00;;;;;;;;5055358;28;51062;-55
2022/04/11 02:11:08;;;;;;;;;6.75;5.00;;;;;;;;5042892;28;51095;-55
2022/04/11 02:13:57;;;;;;;;;8.25;5.25;;;;;;;;5060337;28;51086;-53
2022/04/11 02:16:53;;;;;;;;;6.00;5.50;;;;;;;;5050379;28;51170;-54
2022/04/11 02:19:39;;;;;;;;;8.00;4.25;;;;;;;;5050483;28;51116;-54
2022/04/11 02:22:26;;;;;;;;;6.50;4.75;;;;;;;;5042454;28;51055;-54
2022/04/11 02:25:12;;;;;;;;;5.00;4.00;;;;;;;;5052582;28;50990;-54
2022/04/11 02:27:58;;;;;;;;;7.00;5.25;;;;;;;;5050098;28;51188;-54
2022/04/11 02:30:43;;;;;;;;;5.50;4.75;;;;;;;;5062502;28;51120;-55
2022/04/11 02:33:27;;;;;;;;;8.50;6.00;;;;;;;;5061864;28;51236;-53
2022/04/11 02:36:12;;;;;;;;;9.25;7.75;;;;;;;;5062450;28;51191;-54
2022/04/11 02:41:55;;;;;;;;;7.75;5.75;;;;;;;;5004041;28;51070;-54
2022/04/11 02:44:41;;;;;;;;;12.00;6.50;;;;;;;;4999271;28;51152;-55
2022/04/11 02:47:27;;;;;;;;;8.00;6.00;;;;;;;;4999710;28;51149;-54
2022/04/11 02:50:26;;;;;;;;;7.00;5.50;;;;;;;;4999434;28;51141;-54
2022/04/11 02:53:14;;;;;;;;;9.75;5.00;;;;;;;;4999608;28;51297;-54
2022/04/11 02:55:59;;;;;;;;;9.25;6.00;;;;;;;;4999988;28;51448;-54
2022/04/11 02:58:45;;;;;;;;;7.50;5.00;;;;;;;;4999224;28;51122;-54
2022/04/11 03:01:34;;;;;;;;;7.75;6.00;;;;;;;;4999468;28;51353;-55
2022/04/11 03:04:22;;;;;;;;;6.25;6.25;;;;;;;;4999242;28;51077;-54
2022/04/11 03:07:11;;;;;;;;;11.00;7.25;;;;;;;;4999641;28;51152;-54
2022/04/11 03:09:57;;;;;;;;;7.25;4.75;;;;;;;;4998959;28;51196;-54
2022/04/11 03:12:44;;;;;;;;;7.25;5.25;;;;;;;;4982417;28;51102;-56
2022/04/11 03:15:29;;;;;;;;;8.50;5.50;;;;;;;;4999182;28;51540;-55
2022/04/11 03:18:32;;;;;;;;;6.75;5.75;;;;;;;;5005722;28;51283;-55
2022/04/11 03:21:24;;;;;;;;;7.00;5.75;;;;;;;;5055328;28;52031;-54
2022/04/11 03:24:08;;;;;;;;;8.00;6.75;;;;;;;;5061462;28;51132;-55
2022/04/11 03:26:54;;;;;;;;;8.75;6.00;;;;;;;;5061307;28;51070;-54
2022/04/11 03:29:41;;;;;;;;;6.75;6.00;;;;;;;;5061205;28;51142;-54
2022/04/11 03:32:44;;;;;;;;;6.50;5.75;;;;;;;;5061192;28;51128;-53
2022/04/11 03:35:32;;;;;;;;;10.75;6.25;;;;;;;;5060959;28;51224;-53
2022/04/11 03:38:18;;;;;;;;;16.00;8.75;;;;;;;;5061236;28;51093;-54
2022/04/11 03:41:03;;;;;;;;;11.00;7.00;;;;;;;;5060709;28;51441;-54
2022/04/11 03:43:48;;;;;;;;;9.25;7.25;;;;;;;;5060964;28;51255;-55
2022/04/11 03:46:38;;;;;;;;;7.25;5.00;;;;;;;;5052120;28;51122;-54
2022/04/11 03:49:38;;;;;;;;;6.75;5.75;;;;;;;;5040545;28;51187;-54
2022/04/11 03:52:23;;;;;;;;;10.25;4.75;;;;;;;;5044982;28;51015;-55
2022/04/11 03:55:21;;;;;;;;;8.50;6.75;;;;;;;;5055982;28;51135;-53
2022/04/11 03:58:07;;;;;;;;;7.75;5.50;;;;;;;;5058858;28;51083;-53
2022/04/11 04:00:52;;;;;;;;;9.25;4.75;;;;;;;;5060346;28;51139;-54
2022/04/11 04:03:37;;;;;;;;;9.75;6.75;;;;;;;;5060886;28;51073;-54
2022/04/11 04:06:25;;;;;;;;;10.75;6.50;;;;;;;;5045161;28;51487;-55
2022/04/11 04:09:16;;;;;;;;;7.00;4.75;;;;;;;;5060320;28;51165;-54
2022/04/11 04:12:05;;;;;;;;;9.50;5.75;;;;;;;;5060177;28;51144;-53
2022/04/11 04:14:51;;;;;;;;;6.75;5.50;;;;;;;;5060228;28;51067;-53
2022/04/11 04:17:56;;;;;;;;;9.00;5.50;;;;;;;;5060333;28;51062;-55
2022/04/11 04:20:40;;;;;;;;;8.00;6.25;;;;;;;;5060485;28;51118;-54
2022/04/11 04:23:25;;;;;;;;;5.50;5.00;;;;;;;;5060157;28;51422;-54
2022/04/11 04:26:17;;;;;;;;;9.25;6.00;;;;;;;;5059247;28;51053;-54
2022/04/11 04:29:02;;;;;;;;;8.00;6.00;;;;;;;;5060331;28;50987;-54
2022/04/11 04:31:49;;;;;;;;;5.75;5.50;;;;;;;;5059957;28;51440;-54
2022/04/11 04:34:36;;;;;;;;;7.00;5.00;;;;;;;;5059941;28;51192;-55
2022/04/11 04:37:24;;;;;;;;;8.25;6.75;;;;;;;;5059520;28;51075;-53
2022/04/11 04:40:11;;;;;;;;;9.25;7.50;;;;;;;;5059721;28;51096;-53
2022/04/11 04:43:04;;;;;;;;;12.00;9.00;;;;;;;;5060063;28;51014;-55
2022/04/11 04:45:53;;;;;;;;;9.50;7.00;;;;;;;;5052509;28;51128;-54
2022/04/11 04:49:12;;;;;;;;;10.75;6.00;;;;;;;;5039750;28;51303;-55
2022/04/11 04:51:58;;;;;;;;;7.00;5.00;;;;;;;;5039478;28;51073;-55
2022/04/11 04:54:57;;;;;;;;;6.00;4.75;;;;;;;;5039796;28;51086;-54
2022/04/11 04:57:43;;;;;;;;;12.00;8.25;;;;;;;;5039198;28;51034;-52
2022/04/11 05:00:31;;;;;;;;;13.25;7.50;;;;;;;;5039126;28;51095;-53
2022/04/11 05:03:22;;;;;;;;;6.50;6.50;;;;;;;;5039541;28;51152;-55
2022/04/11 05:06:25;;;;;;;;;6.25;4.50;;;;;;;;5039492;28;50970;-55
2022/04/11 05:09:19;;;;;;;;;8.50;5.50;;;;;;;;5039235;28;51438;-55
2022/04/11 05:12:09;;;;;;;;;9.75;7.00;;;;;;;;5039331;28;51145;-54
2022/04/11 05:14:59;;;;;;;;;8.50;6.00;;;;;;;;5039251;28;51791;-54
2022/04/11 05:17:45;;;;;;;;;9.75;6.00;;;;;;;;5038956;28;51157;-55
2022/04/11 05:20:39;;;;;;;;;10.25;9.00;;;;;;;;5039173;28;51078;-54
2022/04/11 05:23:25;;;;;;;;;6.25;4.50;;;;;;;;5039014;28;51067;-53
2022/04/11 05:26:09;;;;;;;;;8.50;5.25;;;;;;;;5038955;28;51211;-54
2022/04/11 05:28:56;;;;;;;;;10.50;6.50;;;;;;;;5038895;28;51190;-54
2022/04/11 05:31:43;;;;;;;;;8.25;7.00;;;;;;;;5038924;28;51568;-55
2022/04/11 05:34:28;;;;;;;;;5.00;4.00;;;;;;;;5038811;28;51092;-54
2022/04/11 05:37:14;;;;;;;;;8.50;7.00;;;;;;;;5038560;28;51015;-54
2022/04/11 05:40:03;;;;;;;;;11.00;6.75;;;;;;;;5038780;28;51375;-53
2022/04/11 05:42:48;;;;;;;;;12.00;8.50;;;;;;;;5038609;28;51051;-54
2022/04/11 05:45:40;;;;;;;;;10.50;6.25;;;;;;;;5039018;28;51091;-55
2022/04/11 05:48:26;;;;;;;;;5.25;5.00;;;;;;;;5038771;28;51561;-54
2022/04/11 05:51:10;;;;;;;;;3.00;3.00;;;;;;;;5038678;28;51237;-54
2022/04/11 05:54:16;;;;;;;;;14.00;8.25;;;;;;;;5038718;28;51282;-55
2022/04/11 05:57:01;;;;;;;;;8.50;6.25;;;;;;;;5048590;28;51090;-55
2022/04/11 05:59:56;;;;;;;;;12.75;7.50;;;;;;;;5058620;28;51539;-55
2022/04/11 06:02:41;;;;;;;;;7.25;6.75;;;;;;;;5058695;28;51094;-54
2022/04/11 06:05:29;;;;;;;;;9.25;8.25;;;;;;;;5058833;28;51212;-54
2022/04/11 06:08:25;;;;;;;;;13.00;8.00;;;;;;;;5058375;28;51187;-54
2022/04/11 06:11:15;;;;;;;;;9.00;8.00;;;;;;;;5057763;28;51168;-54
2022/04/11 06:14:04;;;;;;;;;11.00;8.00;;;;;;;;5058339;28;51458;-54
2022/04/11 06:16:48;;;;;;;;;6.00;1.75;;;;;;;;5058945;28;51130;-53
2022/04/11 06:19:34;;;;;;;;;10.00;7.00;;;;;;;;5058769;28;51058;-54
2022/04/11 06:22:20;;;;;;;;;6.75;6.50;;;;;;;;5058770;28;50990;-54
2022/04/11 06:25:08;;;;;;;;;12.25;8.50;;;;;;;;5058202;28;51083;-55
2022/04/11 06:27:53;;;;;;;;;12.50;9.75;;;;;;;;5043494;28;51198;-54
2022/04/11 06:30:59;;;;;;;;;9.50;8.50;;;;;;;;5038603;28;51285;-56
2022/04/11 06:33:46;;;;;;;;;10.50;7.00;;;;;;;;5038362;28;51102;-53
2022/04/11 06:36:51;;;;;;;;;10.25;9.00;;;;;;;;5038552;28;51108;-55
2022/04/11 06:39:37;;;;;;;;;9.50;7.75;;;;;;;;5038295;28;51554;-47
2022/04/11 06:42:24;;;;;;;;;9.75;8.25;;;;;;;;5038048;28;51094;-52
2022/04/11 06:45:09;;;;;;;;;12.25;7.75;;;;;;;;5038333;28;51309;-49
2022/04/11 06:48:09;;;;;;;;;9.75;8.25;;;;;;;;5039270;28;51129;-55
2022/04/11 06:51:14;;;;;;;;;9.75;8.25;;;;;;;;5035828;28;51643;-53
2022/04/11 06:53:59;;;;;;;;;12.75;8.00;;;;;;;;5046162;28;51143;-54
2022/04/11 06:56:47;;;;;;;;;9.50;8.25;;;;;;;;5058079;28;51453;-54
2022/04/11 06:59:33;;;;;;;;;13.25;8.25;;;;;;;;5051600;28;51055;-55
2022/04/11 07:02:21;;;;;;;;;17.00;11.25;;;;;;;;5041165;28;51059;-57
2022/04/11 07:05:24;;;;;;;;;11.75;8.75;;;;;;;;5040503;28;51331;-54
2022/04/11 07:08:10;;;;;;;;;13.50;8.00;;;;;;;;5039861;28;51265;-51
2022/04/11 07:10:54;;;;;;;;;9.50;6.00;;;;;;;;5040514;28;51328;-49
2022/04/11 07:13:40;;;;;;;;;10.75;8.50;;;;;;;;5041036;28;51051;-50
2022/04/11 07:16:28;;;;;;;;;12.25;7.75;;;;;;;;5040400;28;51157;-51
2022/04/11 07:19:13;;;;;;;;;9.25;6.75;;;;;;;;5040176;28;51152;-55
2022/04/11 07:22:06;;;;;;;;;8.00;7.00;;;;;;;;5039684;28;51405;-57
2022/04/11 07:24:57;;;;;;;;;13.50;8.00;;;;;;;;5040551;28;51180;-52
2022/04/11 07:27:43;;;;;;;;;9.00;6.25;;;;;;;;5053054;28;51144;-50
2022/04/11 07:30:31;;;;;;;;;10.00;5.50;;;;;;;;5059543;28;51100;-54
2022/04/11 07:33:26;;;;;;;;;10.50;7.00;;;;;;;;5060453;28;51121;-55
2022/04/11 07:36:10;;;;;;;;;5.00;3.50;;;;;;;;5060073;28;51031;-52
2022/04/11 07:39:05;;;;;;;;;5.00;4.00;;;;;;;;5058505;28;51164;-55
2022/04/11 07:41:50;;;;;;;;;9.50;6.25;;;;;;;;5057683;28;51146;-58
2022/04/11 07:44:36;;;;;;;;;6.50;4.75;;;;;;;;5057910;28;51113;-55
2022/04/11 07:47:30;;;;;;;;;7.25;4.75;;;;;;;;5060020;28;51036;-58
2022/04/11 07:50:24;;;;;;;;;5.75;4.50;;;;;;;;5056739;28;51132;-55
2022/04/11 07:53:10;;;;;;;;;10.50;6.00;;;;;;;;5055056;28;51194;-56
2022/04/11 07:55:55;;;;;;;;;5.00;3.50;;;;;;;;5038248;28;51103;-50
2022/04/11 07:58:40;;;;;;;;;6.75;4.00;;;;;;;;5038698;28;51039;-50
2022/04/11 08:01:28;;;;;;;;;10.00;5.00;;;;;;;;5039773;28;51265;-55
2022/04/11 08:04:14;;;;;;;;;6.75;4.75;;;;;;;;5040108;28;51135;-54
2022/04/11 08:07:12;;;;;;;;;7.25;4.75;;;;;;;;5038520;28;51377;-54
2022/04/11 08:09:57;;;;;;;;;4.75;3.75;;;;;;;;5039902;28;51013;-58
2022/04/11 08:12:55;;;;;;;;;7.00;5.00;;;;;;;;5039310;28;51367;-50
2022/04/11 08:16:00;;;;;;;;;4.00;1.25;;;;;;;;5038452;28;51077;-57
2022/04/11 08:18:53;;;;;;;;;6.25;5.00;;;;;;;;5058565;28;51046;-57
2022/04/11 08:21:38;;;;;;;;;5.75;4.75;;;;;;;;5058223;28;51504;-50
2022/04/11 08:24:23;;;;;;;;;10.25;7.50;;;;;;;;5059693;28;51062;-55
2022/04/11 08:27:17;;;;;;;;;9.75;5.75;;;;;;;;5059505;28;51081;-56
2022/04/11 08:30:04;;;;;;;;;3.50;2.50;;;;;;;;5059232;28;51206;-55
2022/04/11 08:32:53;;;;;;;;;5.00;2.25;;;;;;;;5037286;28;51177;-55
2022/04/11 08:35:40;;;;;;;;;7.00;5.00;;;;;;;;5057176;28;51160;-55
2022/04/11 08:38:24;;;;;;;;;6.00;4.00;;;;;;;;5056331;28;51116;-55
2022/04/11 08:41:15;;;;;;;;;7.25;5.50;;;;;;;;5059031;28;51182;-55
2022/04/11 08:44:06;;;;;;;;;6.00;4.75;;;;;;;;5059613;28;51054;-55
2022/04/11 08:46:51;;;;;;;;;6.25;4.25;;;;;;;;5056624;28;51129;-55
2022/04/11 08:49:35;;;;;;;;;3.25;3.25;;;;;;;;5057577;28;51291;-54
2022/04/11 08:52:20;;;;;;;;;5.00;3.00;;;;;;;;5058322;28;51039;-55
2022/04/11 08:55:04;;;;;;;;;4.75;3.25;;;;;;;;5058624;28;51064;-55
2022/04/11 08:58:00;;;;;;;;;9.25;2.25;;;;;;;;5051120;28;51724;-55
2022/04/11 09:01:31;;;;;;;;;6.50;5.00;;;;;;;;5045153;28;51404;-54
2022/04/11 09:04:36;;;;;;;;;6.25;5.75;;;;;;;;5038877;28;51146;-54
2022/04/11 09:07:29;;;;;;;;;5.75;2.00;;;;;;;;5038296;28;51217;-53
2022/04/11 09:10:35;;;;;;;;;4.75;4.25;;;;;;;;5036486;28;51058;-55
2022/04/11 09:13:45;;;;;;;;;6.25;5.50;;;;;;;;5036323;28;51066;-48
2022/04/11 09:16:42;;;;;;;;;6.50;3.25;;;;;;;;5037189;28;51133;-45
2022/04/11 09:19:31;;;;;;;;;4.00;4.00;;;;;;;;5037187;28;51020;-49
2022/04/11 09:22:45;;;;;;;;;6.75;5.50;;;;;;;;5046723;28;51130;-51
2022/04/11 09:25:52;;;;;;;;;7.00;3.75;;;;;;;;5041498;28;51172;-50
2022/04/11 09:28:39;;;;;;;;;5.25;4.00;;;;;;;;5043805;28;51427;-50
2022/04/11 09:31:24;;;;;;;;;7.75;4.50;;;;;;;;5039573;28;51405;-50
2022/04/11 09:34:16;;;;;;;;;7.25;4.00;;;;;;;;5037208;28;51034;-45
2022/04/11 09:37:17;;;;;;;;;6.50;5.00;;;;;;;;5046537;28;51174;-48
2022/04/11 09:40:02;;;;;;;;;8.50;5.50;;;;;;;;5057620;28;51544;-46
2022/04/11 09:42:57;;;;;;;;;5.25;4.00;;;;;;;;5043185;28;51137;-48
2022/04/11 09:45:45;;;;;;;;;6.75;2.00;;;;;;;;5038079;28;51153;-51
2022/04/11 09:48:38;;;;;;;;;5.25;3.25;;;;;;;;5038953;28;51202;-46
2022/04/11 09:51:25;;;;;;;;;4.75;3.25;;;;;;;;5038688;28;51037;-48
2022/04/11 09:54:31;;;;;;;;;4.50;3.00;;;;;;;;5046136;28;51175;-46
2022/04/11 09:57:18;;;;;;;;;3.00;3.00;;;;;;;;5035548;28;51283;-46
2022/04/11 10:00:04;;;;;;;;;3.50;3.00;;;;;;;;5035370;28;51107;-47
2022/04/11 10:02:57;;;;;;;;;6.25;2.75;;;;;;;;5037765;28;51079;-49
2022/04/11 10:06:05;;;;;;;;;6.00;3.00;;;;;;;;5036632;28;51167;-48
2022/04/11 10:08:50;;;;;;;;;3.25;3.25;;;;;;;;5041933;28;51065;-49
2022/04/11 10:11:43;;;;;;;;;5.25;4.25;;;;;;;;5037191;28;51134;-50
2022/04/11 10:14:39;;;;;;;;;4.00;3.25;;;;;;;;5037666;28;51155;-51
2022/04/11 10:17:25;;;;;;;;;4.50;3.50;;;;;;;;5036869;28;51342;-50
2022/04/11 10:20:12;;;;;;;;;6.00;3.75;;;;;;;;5035659;28;51164;-46
2022/04/11 10:23:21;;;;;;;;;5.00;2.75;;;;;;;;5038834;28;51337;-46
2022/04/11 10:26:15;;;;;;;;;3.25;3.25;;;;;;;;5041185;28;51153;-48
2022/04/11 10:29:00;;;;;;;;;5.25;3.75;;;;;;;;5042609;28;51088;-44
2022/04/11 10:32:03;;;;;;;;;2.00;2.00;;;;;;;;5057896;28;51105;-46
2022/04/11 10:34:50;;;;;;;;;7.75;3.00;;;;;;;;5042181;28;51550;-49
2022/04/11 10:37:41;;;;;;;;;5.00;1.00;;;;;;;;5051963;28;51027;-49
2022/04/11 10:40:31;;;;;;;;;3.75;3.25;;;;;;;;5053193;28;51054;-47
2022/04/11 10:43:20;;;;;;;;;6.00;3.25;;;;;;;;5050703;28;51205;-48
2022/04/11 10:46:05;;;;;;;;;3.25;3.25;;;;;;;;5048688;28;51248;-50
2022/04/11 10:48:59;;;;;;;;;8.25;2.75;;;;;;;;5053550;28;52031;-48
2022/04/11 10:51:44;;;;;;;;;5.25;4.75;;;;;;;;5046413;28;51240;-48
2022/04/11 10:54:52;;;;;;;;;5.75;4.00;;;;;;;;5041119;28;51118;-47
2022/04/11 10:57:48;;;;;;;;;2.75;1.50;;;;;;;;5039080;28;51137;-47
2022/04/11 11:00:34;;;;;;;;;5.50;3.25;;;;;;;;5041090;28;51232;-49
2022/04/11 11:03:18;;;;;;;;;7.00;2.75;;;;;;;;5041066;28;51054;-45
2022/04/11 11:06:35;;;;;;;;;6.00;2.25;;;;;;;;5038909;28;51216;-49
2022/04/11 11:09:21;;;;;;;;;4.00;3.50;;;;;;;;4998562;28;51151;-49
2022/04/11 11:12:31;;;;;;;;;5.00;3.25;;;;;;;;5027420;28;51152;-49
2022/04/11 11:15:29;;;;;;;;;2.75;2.00;;;;;;;;5049617;28;51342;-48
2022/04/11 11:18:17;;;;;;;;;2.50;2.50;;;;;;;;5049068;28;51365;-50
2022/04/11 11:21:02;;;;;;;;;3.75;3.00;;;;;;;;5040053;28;51075;-47
2022/04/11 11:24:07;;;;;;;;;7.75;4.25;;;;;;;;5040779;28;51341;-45
2022/04/11 11:26:57;;;;;;;;;3.00;2.25;;;;;;;;5040208;28;51482;-46
2022/04/11 11:29:43;;;;;;;;;4.25;3.50;;;;;;;;5040309;28;51058;-47
2022/04/11 11:32:30;;;;;;;;;4.00;2.00;;;;;;;;5043435;28;51119;-47
2022/04/11 11:35:19;;;;;;;;;4.75;2.25;;;;;;;;5058599;28;51405;-48
2022/04/11 11:38:04;;;;;;;;;6.50;3.75;;;;;;;;5059148;28;51109;-48
2022/04/11 11:40:54;;;;;;;;;3.75;1.25;;;;;;;;5059274;28;51408;-48
2022/04/11 11:43:39;;;;;;;;;3.00;3.00;;;;;;;;5059231;28;51105;-44
2022/04/11 11:46:23;;;;;;;;;6.75;2.25;;;;;;;;5059916;28;51413;-47
2022/04/11 11:49:09;;;;;;;;;6.75;3.00;;;;;;;;5055325;28;51362;-46
2022/04/11 11:51:59;;;;;;;;;2.50;2.50;;;;;;;;5058124;28;51068;-47
2022/04/11 11:54:45;;;;;;;;;3.50;1.00;;;;;;;;5060070;28;51072;-51
2022/04/11 11:57:33;;;;;;;;;2.00;1.50;;;;;;;;5056704;28;51091;-50
2022/04/11 12:00:21;;;;;;;;;4.25;2.25;;;;;;;;5055339;28;51559;-49
2022/04/11 12:06:28;;;;;;;;;7.00;4.25;;;;;;;;5041660;28;51275;-50
2022/04/11 12:09:14;;;;;;;;;3.50;1.50;;;;;;;;5056891;28;51462;-50
2022/04/11 12:12:30;;;;;;;;;1.25;1.25;;;;;;;;5056299;28;51276;-51
2022/04/11 12:15:24;;;;;;;;;2.75;1.00;;;;;;;;5058072;28;51537;-48
2022/04/11 12:18:30;;;;;;;;;2.50;1.00;;;;;;;;5046732;28;51050;-48
2022/04/11 12:21:17;;;;;;;;;3.25;1.25;;;;;;;;5037646;28;51158;-46
2022/04/11 12:24:04;;;;;;;;;1.00;1.00;;;;;;;;5039863;28;51066;-51
2022/04/11 12:26:51;;;;;;;;;3.25;2.75;;;;;;;;5049498;28;51077;-49
2022/04/11 12:29:53;;;;;;;;;3.00;2.75;;;;;;;;5050200;28;51185;-49
2022/04/11 12:32:45;;;;;;;;;6.75;3.50;;;;;;;;5041706;28;51183;-46
2022/04/11 12:35:44;;;;;;;;;4.50;2.00;;;;;;;;5057161;28;51208;-49
2022/04/11 12:38:47;;;;;;;;;3.00;1.00;;;;;;;;5059185;28;51026;-48
2022/04/11 12:41:31;;;;;;;;;3.00;1.00;;;;;;;;5058499;28;51416;-50
2022/04/11 12:44:19;;;;;;;;;1.50;1.50;;;;;;;;5057054;28;51106;-51
2022/04/11 12:47:09;;;;;;;;;9.50;3.75;;;;;;;;5055259;28;51152;-51
2022/04/11 12:49:54;;;;;;;;;2.00;2.00;;;;;;;;5053203;28;51145;-48
2022/04/11 12:52:44;;;;;;;;;1.00;1.00;;;;;;;;5049132;28;51146;-49
2022/04/11 12:55:30;;;;;;;;;1.25;1.25;;;;;;;;5058674;28;51203;-48
2022/04/11 12:58:22;;;;;;;;;2.00;0.75;;;;;;;;5047982;28;51313;-48
2022/04/11 13:01:08;;;;;;;;;1.00;1.00;;;;;;;;5035175;28;51146;-49
2022/04/11 13:04:08;;;;;;;;;2.00;2.00;;;;;;;;5037691;28;51126;-51
2022/04/11 13:06:58;;;;;;;;;9.00;3.75;;;;;;;;5037156;28;51123;-48
2022/04/11 13:09:44;;;;;;;;;3.50;1.50;;;;;;;;5037895;28;51137;-50
2022/04/11 13:12:30;;;;;;;;;0.50;0.50;;;;;;;;5037318;28;51157;-47
2022/04/11 13:15:14;;;;;;;;;1.50;1.00;;;;;;;;5048788;28;51239;-49
2022/04/11 13:21:02;;;;;;;;;5.75;2.25;;;;;;;;5039252;28;51028;-50
2022/04/11 13:23:48;;;;;;;;;0.00;0.00;;;;;;;;5039515;28;51438;-50
2022/04/11 13:26:33;;;;;;;;;2.25;1.00;;;;;;;;5038812;28;51070;-49
2022/04/11 13:29:20;;;;;;;;;5.25;1.75;;;;;;;;5039311;28;51364;-48
2022/04/11 13:32:08;;;;;;;;;3.75;2.00;;;;;;;;5039025;28;51472;-51
2022/04/11 13:35:00;;;;;;;;;3.75;1.00;;;;;;;;5039404;28;51458;-49
2022/04/11 13:37:46;;;;;;;;;2.25;1.50;;;;;;;;5038870;28;51059;-51
2022/04/11 13:40:40;;;;;;;;;2.25;1.00;;;;;;;;5050954;28;51122;-51
2022/04/11 13:43:26;;;;;;;;;5.75;1.75;;;;;;;;5040720;28;51122;-49
2022/04/11 13:46:25;;;;;;;;;3.50;2.00;;;;;;;;5040831;28;51216;-48
2022/04/11 13:49:40;;;;;;;;;1.50;0.25;;;;;;;;5033631;28;51395;-50
2022/04/11 13:52:31;;;;;;;;;2.00;2.00;;;;;;;;5036463;28;51531;-47
2022/04/11 13:55:20;;;;;;;;;2.00;0.50;;;;;;;;5040861;28;51063;-49
2022/04/11 13:58:05;;;;;;;;;2.50;1.00;;;;;;;;5041088;28;51545;-48
2022/04/11 14:00:49;;;;;;;;;0.50;0.50;;;;;;;;5041129;28;51078;-48
2022/04/11 14:03:37;;;;;;;;;3.00;1.00;;;;;;;;5039695;28;51109;-49
2022/04/11 14:06:27;;;;;;;;;4.75;1.50;;;;;;;;5042217;28;51289;-53
2022/04/11 14:09:18;;;;;;;;;1.25;1.25;;;;;;;;5044368;28;51521;-48
2022/04/11 14:12:16;;;;;;;;;3.25;2.00;;;;;;;;5045501;28;51904;-48
2022/04/11 14:15:01;;;;;;;;;3.75;3.00;;;;;;;;5058024;28;51096;-52
2022/04/11 14:18:07;;;;;;;;;2.00;0.75;;;;;;;;5049275;28;51155;-50
2022/04/11 14:20:52;;;;;;;;;10.25;5.50;;;;;;;;5041419;28;51405;-48
2022/04/11 14:23:39;;;;;;;;;4.50;3.50;;;;;;;;5040666;28;51454;-50
2022/04/11 14:26:27;;;;;;;;;1.00;1.00;;;;;;;;5042050;28;51082;-49
2022/04/11 14:29:17;;;;;;;;;3.25;1.00;;;;;;;;5041452;28;51098;-48
2022/04/11 14:32:04;;;;;;;;;7.50;3.00;;;;;;;;5050164;28;52298;-48
2022/04/11 14:34:52;;;;;;;;;1.50;1.00;;;;;;;;5041792;28;51432;-49
2022/04/11 14:37:40;;;;;;;;;3.50;2.00;;;;;;;;5041871;28;50983;-51
2022/04/11 14:40:31;;;;;;;;;2.50;1.00;;;;;;;;5040986;28;51055;-49
2022/04/11 14:43:20;;;;;;;;;5.00;1.25;;;;;;;;5039114;28;51293;-50
2022/04/11 14:46:08;;;;;;;;;2.00;2.00;;;;;;;;5040454;28;51066;-50
2022/04/11 14:48:55;;;;;;;;;1.50;1.50;;;;;;;;5051455;28;51165;-47
2022/04/11 14:51:40;;;;;;;;;7.00;2.00;;;;;;;;5044604;28;51122;-50
2022/04/11 14:54:30;;;;;;;;;3.75;1.75;;;;;;;;5040682;28;51442;-47
2022/04/11 14:57:18;;;;;;;;;2.75;2.75;;;;;;;;5041960;28;51080;-49
2022/04/11 15:00:04;;;;;;;;;2.75;2.00;;;;;;;;5040458;28;51077;-48
2022/04/11 15:02:51;;;;;;;;;3.25;2.25;;;;;;;;5039948;28;51404;-45
2022/04/11 15:05:39;;;;;;;;;2.25;1.00;;;;;;;;5039468;28;51163;-46
2022/04/11 15:08:25;;;;;;;;;4.75;2.00;;;;;;;;5048121;28;51391;-46
2022/04/11 15:11:16;;;;;;;;;3.75;2.00;;;;;;;;5044993;28;51281;-47
2022/04/11 15:14:07;;;;;;;;;5.25;1.25;;;;;;;;5039536;28;51130;-47
2022/04/11 15:17:08;;;;;;;;;4.00;2.75;;;;;;;;5046942;28;51497;-51
2022/04/11 15:19:54;;;;;;;;;6.25;2.25;;;;;;;;5060839;28;51026;-47
2022/04/11 15:22:42;;;;;;;;;1.50;1.00;;;;;;;;5059797;28;51078;-46
2022/04/11 15:25:37;;;;;;;;;4.75;3.00;;;;;;;;5060812;28;51173;-48
2022/04/11 15:28:28;;;;;;;;;5.50;1.00;;;;;;;;5040755;28;51011;-45
2022/04/11 15:31:18;;;;;;;;;3.50;1.75;;;;;;;;5038538;28;51581;-46
2022/04/11 15:34:12;;;;;;;;;3.00;1.25;;;;;;;;5051740;28;50991;-47
2022/04/11 15:37:03;;;;;;;;;3.75;2.75;;;;;;;;5060613;28;51021;-46
2022/04/11 15:39:51;;;;;;;;;2.50;1.00;;;;;;;;5044557;28;51212;-48
2022/04/11 15:42:36;;;;;;;;;6.75;3.00;;;;;;;;5052466;28;51218;-48
2022/04/11 15:45:22;;;;;;;;;2.00;2.00;;;;;;;;5057838;28;51065;-46
2022/04/11 15:48:10;;;;;;;;;9.00;4.75;;;;;;;;5047869;28;51198;-46
2022/04/11 15:50:56;;;;;;;;;6.25;5.00;;;;;;;;5059328;28;51530;-47
2022/04/11 15:53:55;;;;;;;;;5.00;2.75;;;;;;;;5059582;28;51012;-44
2022/04/11 15:56:41;;;;;;;;;5.75;3.00;;;;;;;;5060024;28;51121;-48
2022/04/11 15:59:27;;;;;;;;;7.50;5.75;;;;;;;;5060135;28;51010;-47
2022/04/11 16:02:14;;;;;;;;;3.25;3.25;;;;;;;;5041556;28;51157;-45
2022/04/11 16:05:00;;;;;;;;;3.00;2.00;;;;;;;;5045715;28;51008;-47
2022/04/11 16:07:46;;;;;;;;;3.25;2.25;;;;;;;;5039785;28;51416;-44
2022/04/11 16:10:46;;;;;;;;;3.00;2.75;;;;;;;;5057121;28;51091;-45
2022/04/11 16:13:32;;;;;;;;;2.50;1.50;;;;;;;;5056303;28;51156;-48
2022/04/11 16:16:32;;;;;;;;;4.50;3.25;;;;;;;;5046031;28;51509;-45
2022/04/11 16:19:38;;;;;;;;;4.75;1.50;;;;;;;;5043566;28;51065;-46
2022/04/11 16:22:24;;;;;;;;;5.50;3.50;;;;;;;;5041704;28;51184;-46
2022/04/11 16:25:09;;;;;;;;;2.50;2.00;;;;;;;;5059449;28;51196;-47
2022/04/11 16:27:55;;;;;;;;;2.00;2.00;;;;;;;;5048389;28;51428;-45
2022/04/11 16:30:58;;;;;;;;;7.25;5.25;;;;;;;;5038862;28;51088;-46
2022/04/11 16:33:53;;;;;;;;;7.75;5.75;;;;;;;;5058463;28;51330;-45
2022/04/11 16:36:39;;;;;;;;;6.50;6.50;;;;;;;;5054361;28;51134;-47
2022/04/11 16:39:26;;;;;;;;;6.25;6.25;;;;;;;;5043387;28;51206;-46
2022/04/11 16:42:23;;;;;;;;;4.25;3.50;;;;;;;;5038555;28;51132;-45
2022/04/11 16:45:08;;;;;;;;;5.75;3.00;;;;;;;;5046862;28;51060;-46
2022/04/11 16:48:01;;;;;;;;;4.50;3.75;;;;;;;;5038893;28;51437;-47
2022/04/11 16:50:55;;;;;;;;;4.75;4.75;;;;;;;;5043922;28;51107;-45
2022/04/11 16:53:50;;;;;;;;;3.50;1.75;;;;;;;;5059072;28;51303;-44
2022/04/11 16:56:35;;;;;;;;;4.00;3.25;;;;;;;;5052406;28;51325;-47
2022/04/11 16:59:21;;;;;;;;;7.50;3.75;;;;;;;;5057778;28;51126;-48
2022/04/11 17:02:07;;;;;;;;;1.75;1.75;;;;;;;;5059674;28;51185;-46
2022/04/11 17:05:17;;;;;;;;;5.75;4.25;;;;;;;;5059709;28;51086;-46
2022/04/11 17:08:02;;;;;;;;;1.50;0.25;;;;;;;;5059277;28;51562;-46